sensor_id;sensor_type;location;lat;lon;timestamp;P1;durP1;ratioP1;P2;durP2;ratioP2
5674;SDS011;2860;54.284;10.158;2023-03-03T00:01:20;57.65;;;27.95;;
5674;SDS011;2860;54.284;10.158;2023-03-03T00:03:49;48.90;;;27.75;;
5674;SDS011;2860;54.284;10.158;2023-03-03T00:06:14;59.30;;;30.42;;
5674;SDS011;2860;54.284;10.158;2023-03-03T00:08:40;62.00;;;29.58;;
5674;SDS011;2860;54.284;10.158;2023-03-03T00:11:06;54.22;;;28.38;;
5674;SDS011;2860;54.284;10.158;2023-03-03T00:13:32;53.85;;;28.73;;
5674;SDS011;2860;54.284;10.158;2023-03-03T00:16:22;68.40;;;31.27;;
5674;SDS011;2860;54.284;10.158;2023-03-03T00:18:48;51.42;;;27.63;;
5674;SDS011;2860;54.284;10.158;2023-03-03T00:21:22;59.63;;;30.35;;
5674;SDS011;2860;54.284;10.158;2023-03-03T00:23:50;45.80;;;27.10;;
5674;SDS011;2860;54.284;10.158;2023-03-03T00:26:25;48.90;;;25.25;;
5674;SDS011;2860;54.284;10.158;2023-03-03T00:29:02;47.10;;;27.05;;
5674;SDS011;2860;54.284;10.158;2023-03-03T00:31:50;50.28;;;26.85;;
5674;SDS011;2860;54.284;10.158;2023-03-03T00:36:41;44.50;;;25.85;;
5674;SDS011;2860;54.284;10.158;2023-03-03T00:41:36;48.60;;;25.40;;
5674;SDS011;2860;54.284;10.158;2023-03-03T00:46:55;53.15;;;27.25;;
5674;SDS011;2860;54.284;10.158;2023-03-03T00:49:23;46.30;;;26.42;;
5674;SDS011;2860;54.284;10.158;2023-03-03T00:51:51;48.97;;;27.90;;
5674;SDS011;2860;54.284;10.158;2023-03-03T00:54:18;49.47;;;26.33;;
5674;SDS011;2860;54.284;10.158;2023-03-03T00:56:43;49.08;;;27.88;;
5674;SDS011;2860;54.284;10.158;2023-03-03T00:59:09;44.85;;;26.20;;
5674;SDS011;2860;54.284;10.158;2023-03-03T01:01:34;56.30;;;27.48;;
5674;SDS011;2860;54.284;10.158;2023-03-03T01:04:00;50.10;;;27.42;;
5674;SDS011;2860;54.284;10.158;2023-03-03T01:06:26;48.38;;;26.88;;
5674;SDS011;2860;54.284;10.158;2023-03-03T01:08:51;51.25;;;30.10;;
5674;SDS011;2860;54.284;10.158;2023-03-03T01:11:21;45.45;;;26.88;;
5674;SDS011;2860;54.284;10.158;2023-03-03T01:13:50;54.47;;;28.10;;
5674;SDS011;2860;54.284;10.158;2023-03-03T01:16:17;51.75;;;27.15;;
5674;SDS011;2860;54.284;10.158;2023-03-03T01:18:43;49.78;;;28.00;;
5674;SDS011;2860;54.284;10.158;2023-03-03T01:21:09;53.08;;;29.27;;
5674;SDS011;2860;54.284;10.158;2023-03-03T01:23:35;57.03;;;29.08;;
5674;SDS011;2860;54.284;10.158;2023-03-03T01:26:01;50.38;;;29.02;;
5674;SDS011;2860;54.284;10.158;2023-03-03T01:28:28;51.90;;;27.80;;
5674;SDS011;2860;54.284;10.158;2023-03-03T01:30:53;50.95;;;28.55;;
5674;SDS011;2860;54.284;10.158;2023-03-03T01:33:23;55.47;;;28.50;;
5674;SDS011;2860;54.284;10.158;2023-03-03T01:35:49;60.67;;;28.30;;
5674;SDS011;2860;54.284;10.158;2023-03-03T01:38:14;50.00;;;28.90;;
5674;SDS011;2860;54.284;10.158;2023-03-03T01:40:40;56.35;;;29.27;;
5674;SDS011;2860;54.284;10.158;2023-03-03T01:43:06;66.50;;;29.17;;
5674;SDS011;2860;54.284;10.158;2023-03-03T01:45:41;69.53;;;29.90;;
5674;SDS011;2860;54.284;10.158;2023-03-03T01:48:15;104.95;;;31.30;;
5674;SDS011;2860;54.284;10.158;2023-03-03T01:50:56;69.90;;;28.63;;
5674;SDS011;2860;54.284;10.158;2023-03-03T01:53:33;93.45;;;30.23;;
5674;SDS011;2860;54.284;10.158;2023-03-03T01:56:15;77.80;;;27.33;;
5674;SDS011;2860;54.284;10.158;2023-03-03T01:58:43;104.70;;;28.92;;
5674;SDS011;2860;54.284;10.158;2023-03-03T02:01:23;83.47;;;27.50;;
5674;SDS011;2860;54.284;10.158;2023-03-03T02:03:55;74.13;;;28.08;;
5674;SDS011;2860;54.284;10.158;2023-03-03T02:06:22;70.47;;;28.42;;
5674;SDS011;2860;54.284;10.158;2023-03-03T02:11:49;107.63;;;28.20;;
5674;SDS011;2860;54.284;10.158;2023-03-03T02:14:17;69.10;;;27.45;;
5674;SDS011;2860;54.284;10.158;2023-03-03T02:16:43;77.97;;;27.45;;
5674;SDS011;2860;54.284;10.158;2023-03-03T02:19:12;73.25;;;28.58;;
5674;SDS011;2860;54.284;10.158;2023-03-03T02:21:55;78.55;;;29.30;;
5674;SDS011;2860;54.284;10.158;2023-03-03T02:24:26;100.97;;;27.25;;
5674;SDS011;2860;54.284;10.158;2023-03-03T02:27:06;83.07;;;28.20;;
5674;SDS011;2860;54.284;10.158;2023-03-03T02:29:31;105.97;;;28.85;;
5674;SDS011;2860;54.284;10.158;2023-03-03T02:31:57;48.85;;;26.17;;
5674;SDS011;2860;54.284;10.158;2023-03-03T02:34:22;53.67;;;26.52;;
5674;SDS011;2860;54.284;10.158;2023-03-03T02:36:48;49.13;;;27.67;;
5674;SDS011;2860;54.284;10.158;2023-03-03T02:39:21;56.95;;;29.23;;
5674;SDS011;2860;54.284;10.158;2023-03-03T02:42:05;46.05;;;26.73;;
5674;SDS011;2860;54.284;10.158;2023-03-03T02:44:41;48.78;;;26.25;;
5674;SDS011;2860;54.284;10.158;2023-03-03T02:47:06;40.40;;;25.27;;
5674;SDS011;2860;54.284;10.158;2023-03-03T02:49:33;42.10;;;25.23;;
5674;SDS011;2860;54.284;10.158;2023-03-03T02:52:00;49.15;;;27.35;;
5674;SDS011;2860;54.284;10.158;2023-03-03T02:54:29;44.53;;;25.90;;
5674;SDS011;2860;54.284;10.158;2023-03-03T02:56:56;51.03;;;29.45;;
5674;SDS011;2860;54.284;10.158;2023-03-03T02:59:22;46.25;;;27.00;;
5674;SDS011;2860;54.284;10.158;2023-03-03T03:01:47;47.28;;;26.33;;
5674;SDS011;2860;54.284;10.158;2023-03-03T03:04:15;44.08;;;26.67;;
5674;SDS011;2860;54.284;10.158;2023-03-03T03:06:44;43.90;;;26.20;;
5674;SDS011;2860;54.284;10.158;2023-03-03T03:09:11;45.83;;;27.30;;
5674;SDS011;2860;54.284;10.158;2023-03-03T03:11:37;46.90;;;27.30;;
5674;SDS011;2860;54.284;10.158;2023-03-03T03:14:04;46.40;;;26.73;;
5674;SDS011;2860;54.284;10.158;2023-03-03T03:16:31;51.22;;;27.65;;
5674;SDS011;2860;54.284;10.158;2023-03-03T03:18:57;46.35;;;28.60;;
5674;SDS011;2860;54.284;10.158;2023-03-03T03:21:24;46.67;;;26.00;;
5674;SDS011;2860;54.284;10.158;2023-03-03T03:23:49;40.47;;;24.40;;
5674;SDS011;2860;54.284;10.158;2023-03-03T03:26:15;37.55;;;23.80;;
5674;SDS011;2860;54.284;10.158;2023-03-03T03:28:40;40.22;;;25.70;;
5674;SDS011;2860;54.284;10.158;2023-03-03T03:31:07;39.30;;;24.88;;
5674;SDS011;2860;54.284;10.158;2023-03-03T03:33:33;39.13;;;25.48;;
5674;SDS011;2860;54.284;10.158;2023-03-03T03:35:59;38.22;;;24.35;;
5674;SDS011;2860;54.284;10.158;2023-03-03T03:38:26;37.47;;;25.70;;
5674;SDS011;2860;54.284;10.158;2023-03-03T03:40:53;42.40;;;25.27;;
5674;SDS011;2860;54.284;10.158;2023-03-03T03:43:19;42.75;;;27.23;;
5674;SDS011;2860;54.284;10.158;2023-03-03T03:45:45;38.53;;;24.27;;
5674;SDS011;2860;54.284;10.158;2023-03-03T03:48:10;44.90;;;25.58;;
5674;SDS011;2860;54.284;10.158;2023-03-03T03:50:36;36.95;;;23.38;;
5674;SDS011;2860;54.284;10.158;2023-03-03T03:53:02;40.40;;;24.50;;
5674;SDS011;2860;54.284;10.158;2023-03-03T03:55:28;38.78;;;24.42;;
5674;SDS011;2860;54.284;10.158;2023-03-03T03:57:54;42.50;;;23.35;;
5674;SDS011;2860;54.284;10.158;2023-03-03T04:00:20;42.05;;;25.17;;
5674;SDS011;2860;54.284;10.158;2023-03-03T04:02:46;39.58;;;22.80;;
5674;SDS011;2860;54.284;10.158;2023-03-03T04:05:12;36.80;;;23.23;;
5674;SDS011;2860;54.284;10.158;2023-03-03T04:07:37;41.05;;;25.20;;
5674;SDS011;2860;54.284;10.158;2023-03-03T04:10:03;41.05;;;23.77;;
5674;SDS011;2860;54.284;10.158;2023-03-03T04:12:29;34.78;;;23.10;;
5674;SDS011;2860;54.284;10.158;2023-03-03T04:15:02;37.03;;;23.90;;
5674;SDS011;2860;54.284;10.158;2023-03-03T04:17:37;39.20;;;25.70;;
5674;SDS011;2860;54.284;10.158;2023-03-03T04:20:04;41.42;;;25.50;;
5674;SDS011;2860;54.284;10.158;2023-03-03T04:22:30;39.70;;;23.50;;
5674;SDS011;2860;54.284;10.158;2023-03-03T04:25:00;37.30;;;23.67;;
5674;SDS011;2860;54.284;10.158;2023-03-03T04:27:29;36.90;;;21.88;;
5674;SDS011;2860;54.284;10.158;2023-03-03T04:29:55;37.25;;;23.15;;
5674;SDS011;2860;54.284;10.158;2023-03-03T04:32:21;36.65;;;22.77;;
5674;SDS011;2860;54.284;10.158;2023-03-03T04:34:46;30.25;;;21.25;;
5674;SDS011;2860;54.284;10.158;2023-03-03T04:37:12;34.83;;;21.60;;
5674;SDS011;2860;54.284;10.158;2023-03-03T04:39:37;37.03;;;22.05;;
5674;SDS011;2860;54.284;10.158;2023-03-03T04:42:03;31.40;;;22.17;;
5674;SDS011;2860;54.284;10.158;2023-03-03T04:44:28;44.88;;;23.42;;
5674;SDS011;2860;54.284;10.158;2023-03-03T04:46:54;41.45;;;22.83;;
5674;SDS011;2860;54.284;10.158;2023-03-03T04:49:19;32.22;;;22.08;;
5674;SDS011;2860;54.284;10.158;2023-03-03T04:51:45;34.10;;;23.63;;
5674;SDS011;2860;54.284;10.158;2023-03-03T04:54:10;37.20;;;24.40;;
5674;SDS011;2860;54.284;10.158;2023-03-03T04:56:36;34.30;;;22.48;;
5674;SDS011;2860;54.284;10.158;2023-03-03T04:59:01;35.03;;;23.50;;
5674;SDS011;2860;54.284;10.158;2023-03-03T05:01:27;41.28;;;24.13;;
5674;SDS011;2860;54.284;10.158;2023-03-03T05:03:52;37.50;;;22.92;;
5674;SDS011;2860;54.284;10.158;2023-03-03T05:06:18;39.75;;;25.48;;
5674;SDS011;2860;54.284;10.158;2023-03-03T05:08:44;38.38;;;24.15;;
5674;SDS011;2860;54.284;10.158;2023-03-03T05:11:10;34.53;;;23.52;;
5674;SDS011;2860;54.284;10.158;2023-03-03T05:13:37;37.58;;;23.92;;
5674;SDS011;2860;54.284;10.158;2023-03-03T05:16:03;39.83;;;24.50;;
5674;SDS011;2860;54.284;10.158;2023-03-03T05:18:29;41.28;;;24.35;;
5674;SDS011;2860;54.284;10.158;2023-03-03T05:20:55;41.55;;;23.40;;
5674;SDS011;2860;54.284;10.158;2023-03-03T05:23:20;40.90;;;25.70;;
5674;SDS011;2860;54.284;10.158;2023-03-03T05:25:46;57.00;;;26.65;;
5674;SDS011;2860;54.284;10.158;2023-03-03T05:28:12;57.47;;;25.27;;
5674;SDS011;2860;54.284;10.158;2023-03-03T05:30:38;85.13;;;25.08;;
5674;SDS011;2860;54.284;10.158;2023-03-03T05:33:04;66.63;;;22.98;;
5674;SDS011;2860;54.284;10.158;2023-03-03T05:35:29;88.03;;;24.00;;
5674;SDS011;2860;54.284;10.158;2023-03-03T05:37:55;114.85;;;23.67;;
5674;SDS011;2860;54.284;10.158;2023-03-03T05:40:22;63.92;;;23.65;;
5674;SDS011;2860;54.284;10.158;2023-03-03T05:42:48;149.25;;;22.33;;
5674;SDS011;2860;54.284;10.158;2023-03-03T05:45:14;79.60;;;21.75;;
5674;SDS011;2860;54.284;10.158;2023-03-03T05:47:40;73.95;;;22.55;;
5674;SDS011;2860;54.284;10.158;2023-03-03T05:50:05;131.50;;;22.48;;
5674;SDS011;2860;54.284;10.158;2023-03-03T05:52:31;117.78;;;21.98;;
5674;SDS011;2860;54.284;10.158;2023-03-03T05:54:56;42.92;;;17.52;;
5674;SDS011;2860;54.284;10.158;2023-03-03T05:57:22;141.45;;;19.75;;
5674;SDS011;2860;54.284;10.158;2023-03-03T05:59:47;205.25;;;23.15;;
5674;SDS011;2860;54.284;10.158;2023-03-03T06:02:13;71.55;;;18.52;;
5674;SDS011;2860;54.284;10.158;2023-03-03T06:04:39;112.95;;;20.50;;
5674;SDS011;2860;54.284;10.158;2023-03-03T06:07:04;104.55;;;19.60;;
5674;SDS011;2860;54.284;10.158;2023-03-03T06:09:31;116.65;;;19.75;;
5674;SDS011;2860;54.284;10.158;2023-03-03T06:11:57;98.68;;;20.27;;
5674;SDS011;2860;54.284;10.158;2023-03-03T06:14:22;91.38;;;19.90;;
5674;SDS011;2860;54.284;10.158;2023-03-03T06:16:48;83.45;;;20.92;;
5674;SDS011;2860;54.284;10.158;2023-03-03T06:19:14;55.28;;;19.75;;
5674;SDS011;2860;54.284;10.158;2023-03-03T06:21:40;54.35;;;18.92;;
5674;SDS011;2860;54.284;10.158;2023-03-03T06:24:05;88.10;;;19.65;;
5674;SDS011;2860;54.284;10.158;2023-03-03T06:26:31;82.45;;;18.85;;
5674;SDS011;2860;54.284;10.158;2023-03-03T06:28:57;118.72;;;20.20;;
5674;SDS011;2860;54.284;10.158;2023-03-03T06:31:23;86.63;;;19.65;;
5674;SDS011;2860;54.284;10.158;2023-03-03T06:33:49;92.85;;;20.33;;
5674;SDS011;2860;54.284;10.158;2023-03-03T06:36:15;125.95;;;21.50;;
5674;SDS011;2860;54.284;10.158;2023-03-03T06:38:41;67.38;;;19.98;;
5674;SDS011;2860;54.284;10.158;2023-03-03T06:41:07;69.22;;;18.90;;
5674;SDS011;2860;54.284;10.158;2023-03-03T06:43:33;43.83;;;17.67;;
5674;SDS011;2860;54.284;10.158;2023-03-03T06:45:59;65.60;;;19.48;;
5674;SDS011;2860;54.284;10.158;2023-03-03T06:48:25;45.17;;;19.85;;
5674;SDS011;2860;54.284;10.158;2023-03-03T06:50:50;36.92;;;20.02;;
5674;SDS011;2860;54.284;10.158;2023-03-03T06:53:16;107.82;;;27.50;;
5674;SDS011;2860;54.284;10.158;2023-03-03T06:55:43;78.43;;;19.70;;
5674;SDS011;2860;54.284;10.158;2023-03-03T06:58:19;39.08;;;18.60;;
5674;SDS011;2860;54.284;10.158;2023-03-03T07:00:53;48.85;;;16.25;;
5674;SDS011;2860;54.284;10.158;2023-03-03T07:03:22;75.20;;;18.10;;
5674;SDS011;2860;54.284;10.158;2023-03-03T07:05:49;70.88;;;17.80;;
5674;SDS011;2860;54.284;10.158;2023-03-03T07:08:17;79.03;;;17.90;;
5674;SDS011;2860;54.284;10.158;2023-03-03T07:10:44;73.00;;;17.13;;
5674;SDS011;2860;54.284;10.158;2023-03-03T07:15:50;155.68;;;19.35;;
5674;SDS011;2860;54.284;10.158;2023-03-03T07:18:22;142.90;;;17.73;;
5674;SDS011;2860;54.284;10.158;2023-03-03T07:20:53;149.13;;;16.80;;
5674;SDS011;2860;54.284;10.158;2023-03-03T07:23:23;70.57;;;14.82;;
5674;SDS011;2860;54.284;10.158;2023-03-03T07:25:51;89.68;;;16.55;;
5674;SDS011;2860;54.284;10.158;2023-03-03T07:28:24;63.13;;;16.27;;
5674;SDS011;2860;54.284;10.158;2023-03-03T07:30:52;92.00;;;16.15;;
5674;SDS011;2860;54.284;10.158;2023-03-03T07:33:28;49.42;;;14.27;;
5674;SDS011;2860;54.284;10.158;2023-03-03T07:35:58;56.97;;;15.15;;
5674;SDS011;2860;54.284;10.158;2023-03-03T07:38:30;103.43;;;16.02;;
5674;SDS011;2860;54.284;10.158;2023-03-03T07:41:02;90.97;;;16.65;;
5674;SDS011;2860;54.284;10.158;2023-03-03T07:43:42;105.25;;;16.67;;
5674;SDS011;2860;54.284;10.158;2023-03-03T07:48:51;78.25;;;16.27;;
5674;SDS011;2860;54.284;10.158;2023-03-03T07:51:25;53.03;;;14.63;;
5674;SDS011;2860;54.284;10.158;2023-03-03T07:53:52;40.45;;;13.98;;
5674;SDS011;2860;54.284;10.158;2023-03-03T07:56:33;49.90;;;15.75;;
5674;SDS011;2860;54.284;10.158;2023-03-03T07:59:01;49.78;;;14.95;;
5674;SDS011;2860;54.284;10.158;2023-03-03T08:01:39;46.65;;;15.90;;
5674;SDS011;2860;54.284;10.158;2023-03-03T08:04:49;48.25;;;14.93;;
5674;SDS011;2860;54.284;10.158;2023-03-03T08:07:08;33.50;;;15.35;;
5674;SDS011;2860;54.284;10.158;2023-03-03T08:09:42;42.22;;;15.32;;
5674;SDS011;2860;54.284;10.158;2023-03-03T08:12:31;25.70;;;13.43;;
5674;SDS011;2860;54.284;10.158;2023-03-03T08:15:24;29.67;;;15.57;;
5674;SDS011;2860;54.284;10.158;2023-03-03T08:17:56;59.92;;;15.05;;
5674;SDS011;2860;54.284;10.158;2023-03-03T08:22:53;27.60;;;14.88;;
5674;SDS011;2860;54.284;10.158;2023-03-03T08:25:18;25.13;;;14.90;;
5674;SDS011;2860;54.284;10.158;2023-03-03T08:27:44;29.63;;;16.85;;
5674;SDS011;2860;54.284;10.158;2023-03-03T08:30:09;33.88;;;16.27;;
5674;SDS011;2860;54.284;10.158;2023-03-03T08:32:35;21.38;;;15.50;;
5674;SDS011;2860;54.284;10.158;2023-03-03T08:35:01;22.13;;;14.95;;
5674;SDS011;2860;54.284;10.158;2023-03-03T08:37:26;26.20;;;15.82;;
5674;SDS011;2860;54.284;10.158;2023-03-03T08:39:52;20.58;;;14.95;;
5674;SDS011;2860;54.284;10.158;2023-03-03T08:42:17;19.10;;;15.48;;
5674;SDS011;2860;54.284;10.158;2023-03-03T08:44:43;20.70;;;14.32;;
5674;SDS011;2860;54.284;10.158;2023-03-03T08:47:08;20.10;;;14.90;;
5674;SDS011;2860;54.284;10.158;2023-03-03T08:49:34;19.25;;;15.57;;
5674;SDS011;2860;54.284;10.158;2023-03-03T08:52:00;21.30;;;15.55;;
5674;SDS011;2860;54.284;10.158;2023-03-03T08:54:25;16.40;;;14.63;;
5674;SDS011;2860;54.284;10.158;2023-03-03T08:56:51;17.10;;;14.65;;
5674;SDS011;2860;54.284;10.158;2023-03-03T08:59:16;17.75;;;15.25;;
5674;SDS011;2860;54.284;10.158;2023-03-03T09:01:43;30.23;;;15.77;;
5674;SDS011;2860;54.284;10.158;2023-03-03T09:04:09;16.63;;;14.57;;
5674;SDS011;2860;54.284;10.158;2023-03-03T09:06:35;14.93;;;13.57;;
5674;SDS011;2860;54.284;10.158;2023-03-03T09:09:00;19.25;;;15.40;;
5674;SDS011;2860;54.284;10.158;2023-03-03T09:11:27;15.48;;;13.73;;
5674;SDS011;2860;54.284;10.158;2023-03-03T09:14:08;16.35;;;13.38;;
5674;SDS011;2860;54.284;10.158;2023-03-03T09:16:39;14.95;;;13.10;;
5674;SDS011;2860;54.284;10.158;2023-03-03T09:19:18;12.55;;;11.00;;
5674;SDS011;2860;54.284;10.158;2023-03-03T09:22:01;11.90;;;10.77;;
5674;SDS011;2860;54.284;10.158;2023-03-03T09:24:42;15.45;;;11.65;;
5674;SDS011;2860;54.284;10.158;2023-03-03T09:27:15;12.00;;;10.85;;
5674;SDS011;2860;54.284;10.158;2023-03-03T09:29:51;12.00;;;10.90;;
5674;SDS011;2860;54.284;10.158;2023-03-03T09:34:50;17.75;;;11.05;;
5674;SDS011;2860;54.284;10.158;2023-03-03T09:39:54;13.95;;;11.65;;
5674;SDS011;2860;54.284;10.158;2023-03-03T09:54:32;13.85;;;11.90;;
5674;SDS011;2860;54.284;10.158;2023-03-03T09:58:01;11.23;;;10.23;;
5674;SDS011;2860;54.284;10.158;2023-03-03T10:22:18;10.43;;;9.45;;
5674;SDS011;2860;54.284;10.158;2023-03-03T10:25:03;11.57;;;9.32;;
5674;SDS011;2860;54.284;10.158;2023-03-03T10:27:50;10.55;;;9.13;;
5674;SDS011;2860;54.284;10.158;2023-03-03T10:30:53;10.43;;;9.38;;
5674;SDS011;2860;54.284;10.158;2023-03-03T10:42:02;9.00;;;7.55;;
5674;SDS011;2860;54.284;10.158;2023-03-03T10:52:59;6.28;;;5.90;;
5674;SDS011;2860;54.284;10.158;2023-03-03T10:55:34;8.60;;;6.20;;
5674;SDS011;2860;54.284;10.158;2023-03-03T10:58:21;6.50;;;5.97;;
5674;SDS011;2860;54.284;10.158;2023-03-03T11:03:57;7.00;;;5.80;;
5674;SDS011;2860;54.284;10.158;2023-03-03T11:09:35;7.30;;;6.70;;
5674;SDS011;2860;54.284;10.158;2023-03-03T11:14:42;7.07;;;6.60;;
5674;SDS011;2860;54.284;10.158;2023-03-03T11:19:54;7.35;;;6.75;;
5674;SDS011;2860;54.284;10.158;2023-03-03T11:22:40;6.70;;;6.30;;
5674;SDS011;2860;54.284;10.158;2023-03-03T11:27:57;9.80;;;6.57;;
5674;SDS011;2860;54.284;10.158;2023-03-03T11:30:34;9.60;;;7.63;;
5674;SDS011;2860;54.284;10.158;2023-03-03T11:36:11;7.55;;;7.00;;
5674;SDS011;2860;54.284;10.158;2023-03-03T11:44:09;8.60;;;6.55;;
5674;SDS011;2860;54.284;10.158;2023-03-03T11:49:15;5.45;;;4.97;;
5674;SDS011;2860;54.284;10.158;2023-03-03T11:52:02;9.52;;;4.72;;
5674;SDS011;2860;54.284;10.158;2023-03-03T11:54:32;5.05;;;4.38;;
5674;SDS011;2860;54.284;10.158;2023-03-03T12:00:28;7.00;;;3.38;;
5674;SDS011;2860;54.284;10.158;2023-03-03T12:06:16;7.22;;;2.65;;
5674;SDS011;2860;54.284;10.158;2023-03-03T12:09:20;2.05;;;1.95;;
5674;SDS011;2860;54.284;10.158;2023-03-03T12:11:52;5.60;;;2.70;;
5674;SDS011;2860;54.284;10.158;2023-03-03T12:17:11;5.03;;;2.40;;
5674;SDS011;2860;54.284;10.158;2023-03-03T12:19:42;4.45;;;2.67;;
5674;SDS011;2860;54.284;10.158;2023-03-03T12:22:30;9.18;;;3.10;;
5674;SDS011;2860;54.284;10.158;2023-03-03T12:25:01;10.77;;;2.90;;
5674;SDS011;2860;54.284;10.158;2023-03-03T12:27:44;7.57;;;3.00;;
5674;SDS011;2860;54.284;10.158;2023-03-03T12:41:11;10.52;;;3.53;;
5674;SDS011;2860;54.284;10.158;2023-03-03T12:46:52;9.85;;;3.00;;
5674;SDS011;2860;54.284;10.158;2023-03-03T12:49:22;6.65;;;2.75;;
5674;SDS011;2860;54.284;10.158;2023-03-03T12:54:38;5.65;;;3.63;;
5674;SDS011;2860;54.284;10.158;2023-03-03T12:57:18;5.93;;;2.80;;
5674;SDS011;2860;54.284;10.158;2023-03-03T13:00:05;4.15;;;1.90;;
5674;SDS011;2860;54.284;10.158;2023-03-03T13:10:51;12.20;;;2.38;;
5674;SDS011;2860;54.284;10.158;2023-03-03T13:13:42;14.07;;;2.47;;
5674;SDS011;2860;54.284;10.158;2023-03-03T13:16:21;9.80;;;2.13;;
5674;SDS011;2860;54.284;10.158;2023-03-03T13:18:55;10.85;;;2.47;;
5674;SDS011;2860;54.284;10.158;2023-03-03T13:21:41;6.88;;;1.80;;
5674;SDS011;2860;54.284;10.158;2023-03-03T13:24:17;9.73;;;2.58;;
5674;SDS011;2860;54.284;10.158;2023-03-03T13:26:54;7.32;;;2.13;;
5674;SDS011;2860;54.284;10.158;2023-03-03T13:29:41;8.57;;;2.80;;
5674;SDS011;2860;54.284;10.158;2023-03-03T13:32:31;15.55;;;3.28;;
5674;SDS011;2860;54.284;10.158;2023-03-03T13:40:02;5.82;;;2.15;;
5674;SDS011;2860;54.284;10.158;2023-03-03T13:45:12;5.72;;;2.53;;
5674;SDS011;2860;54.284;10.158;2023-03-03T13:50:32;6.38;;;3.72;;
5674;SDS011;2860;54.284;10.158;2023-03-03T13:55:42;8.15;;;2.70;;
5674;SDS011;2860;54.284;10.158;2023-03-03T14:03:45;3.47;;;2.13;;
5674;SDS011;2860;54.284;10.158;2023-03-03T14:06:18;12.45;;;2.90;;
5674;SDS011;2860;54.284;10.158;2023-03-03T14:08:54;13.98;;;2.80;;
5674;SDS011;2860;54.284;10.158;2023-03-03T14:17:24;9.85;;;2.65;;
5674;SDS011;2860;54.284;10.158;2023-03-03T14:20:01;3.50;;;2.30;;
5674;SDS011;2860;54.284;10.158;2023-03-03T14:22:41;6.47;;;2.45;;
5674;SDS011;2860;54.284;10.158;2023-03-03T14:25:16;7.35;;;2.45;;
5674;SDS011;2860;54.284;10.158;2023-03-03T14:35:31;9.45;;;2.13;;
5674;SDS011;2860;54.284;10.158;2023-03-03T14:38:14;17.10;;;2.67;;
5674;SDS011;2860;54.284;10.158;2023-03-03T14:43:35;8.15;;;2.33;;
5674;SDS011;2860;54.284;10.158;2023-03-03T14:46:21;11.00;;;3.13;;
5674;SDS011;2860;54.284;10.158;2023-03-03T14:48:55;11.68;;;2.95;;
5674;SDS011;2860;54.284;10.158;2023-03-03T14:53:49;8.88;;;2.70;;
5674;SDS011;2860;54.284;10.158;2023-03-03T14:56:21;6.55;;;2.38;;
5674;SDS011;2860;54.284;10.158;2023-03-03T14:59:16;11.27;;;2.85;;
5674;SDS011;2860;54.284;10.158;2023-03-03T15:01:44;10.38;;;2.83;;
5674;SDS011;2860;54.284;10.158;2023-03-03T15:06:42;10.05;;;2.85;;
5674;SDS011;2860;54.284;10.158;2023-03-03T15:11:55;8.30;;;1.92;;
5674;SDS011;2860;54.284;10.158;2023-03-03T15:14:29;21.40;;;3.13;;
5674;SDS011;2860;54.284;10.158;2023-03-03T15:17:12;21.70;;;3.22;;
5674;SDS011;2860;54.284;10.158;2023-03-03T15:19:53;13.73;;;3.53;;
5674;SDS011;2860;54.284;10.158;2023-03-03T15:22:50;17.58;;;2.95;;
5674;SDS011;2860;54.284;10.158;2023-03-03T15:25:38;13.43;;;2.95;;
5674;SDS011;2860;54.284;10.158;2023-03-03T15:28:38;18.08;;;3.80;;
5674;SDS011;2860;54.284;10.158;2023-03-03T15:31:20;15.93;;;3.05;;
5674;SDS011;2860;54.284;10.158;2023-03-03T15:36:44;15.85;;;4.10;;
5674;SDS011;2860;54.284;10.158;2023-03-03T15:47:51;21.58;;;4.25;;
5674;SDS011;2860;54.284;10.158;2023-03-03T15:50:50;21.48;;;3.72;;
5674;SDS011;2860;54.284;10.158;2023-03-03T15:53:51;20.60;;;4.35;;
5674;SDS011;2860;54.284;10.158;2023-03-03T15:59:23;33.70;;;4.80;;
5674;SDS011;2860;54.284;10.158;2023-03-03T16:05:21;13.18;;;3.75;;
5674;SDS011;2860;54.284;10.158;2023-03-03T16:08:10;15.77;;;3.78;;
5674;SDS011;2860;54.284;10.158;2023-03-03T16:19:05;19.65;;;4.05;;
5674;SDS011;2860;54.284;10.158;2023-03-03T16:25:04;30.05;;;4.15;;
5674;SDS011;2860;54.284;10.158;2023-03-03T16:27:49;15.93;;;4.22;;
5674;SDS011;2860;54.284;10.158;2023-03-03T16:36:16;32.55;;;3.72;;
5674;SDS011;2860;54.284;10.158;2023-03-03T16:38:59;20.65;;;3.13;;
5674;SDS011;2860;54.284;10.158;2023-03-03T16:41:59;13.82;;;3.63;;
5674;SDS011;2860;54.284;10.158;2023-03-03T16:47:21;18.90;;;2.90;;
5674;SDS011;2860;54.284;10.158;2023-03-03T16:50:15;19.20;;;3.15;;
5674;SDS011;2860;54.284;10.158;2023-03-03T16:58:34;12.32;;;3.47;;
5674;SDS011;2860;54.284;10.158;2023-03-03T17:04:05;18.27;;;4.47;;
5674;SDS011;2860;54.284;10.158;2023-03-03T17:10:15;17.35;;;4.60;;
5674;SDS011;2860;54.284;10.158;2023-03-03T17:18:06;19.98;;;4.82;;
5674;SDS011;2860;54.284;10.158;2023-03-03T17:20:45;22.25;;;5.03;;
5674;SDS011;2860;54.284;10.158;2023-03-03T17:31:46;23.35;;;6.32;;
5674;SDS011;2860;54.284;10.158;2023-03-03T17:34:33;32.55;;;5.68;;
5674;SDS011;2860;54.284;10.158;2023-03-03T17:37:16;18.73;;;5.32;;
5674;SDS011;2860;54.284;10.158;2023-03-03T17:47:40;25.35;;;5.57;;
5674;SDS011;2860;54.284;10.158;2023-03-03T17:50:16;28.50;;;4.75;;
5674;SDS011;2860;54.284;10.158;2023-03-03T17:58:29;25.88;;;4.38;;
5674;SDS011;2860;54.284;10.158;2023-03-03T18:12:10;22.48;;;5.18;;
5674;SDS011;2860;54.284;10.158;2023-03-03T18:17:33;17.88;;;6.53;;
5674;SDS011;2860;54.284;10.158;2023-03-03T18:22:58;24.92;;;4.35;;
5674;SDS011;2860;54.284;10.158;2023-03-03T18:25:53;17.38;;;4.45;;
5674;SDS011;2860;54.284;10.158;2023-03-03T18:28:23;12.73;;;4.38;;
5674;SDS011;2860;54.284;10.158;2023-03-03T18:31:25;36.20;;;6.13;;
5674;SDS011;2860;54.284;10.158;2023-03-03T18:34:02;21.30;;;4.93;;
5674;SDS011;2860;54.284;10.158;2023-03-03T18:36:37;20.98;;;5.10;;
5674;SDS011;2860;54.284;10.158;2023-03-03T18:39:23;19.75;;;5.32;;
5674;SDS011;2860;54.284;10.158;2023-03-03T18:44:40;19.95;;;5.65;;
5674;SDS011;2860;54.284;10.158;2023-03-03T18:47:06;20.55;;;5.05;;
5674;SDS011;2860;54.284;10.158;2023-03-03T18:52:35;26.25;;;4.90;;
5674;SDS011;2860;54.284;10.158;2023-03-03T18:57:33;37.15;;;5.70;;
5674;SDS011;2860;54.284;10.158;2023-03-03T19:02:37;12.95;;;5.75;;
5674;SDS011;2860;54.284;10.158;2023-03-03T19:13:25;21.40;;;5.53;;
5674;SDS011;2860;54.284;10.158;2023-03-03T19:23:58;19.70;;;4.75;;
5674;SDS011;2860;54.284;10.158;2023-03-03T19:40:21;22.40;;;5.97;;
5674;SDS011;2860;54.284;10.158;2023-03-03T19:43:05;27.20;;;5.43;;
5674;SDS011;2860;54.284;10.158;2023-03-03T19:48:45;21.17;;;5.57;;
5674;SDS011;2860;54.284;10.158;2023-03-03T19:57:29;22.67;;;4.07;;
5674;SDS011;2860;54.284;10.158;2023-03-03T20:02:37;32.80;;;7.63;;
5674;SDS011;2860;54.284;10.158;2023-03-03T20:05:15;30.92;;;5.40;;
5674;SDS011;2860;54.284;10.158;2023-03-03T20:08:32;28.20;;;6.00;;
5674;SDS011;2860;54.284;10.158;2023-03-03T20:10:55;32.72;;;6.15;;
5674;SDS011;2860;54.284;10.158;2023-03-03T20:19:05;23.30;;;6.25;;
5674;SDS011;2860;54.284;10.158;2023-03-03T20:24:49;28.10;;;5.85;;
5674;SDS011;2860;54.284;10.158;2023-03-03T20:27:29;27.88;;;5.47;;
5674;SDS011;2860;54.284;10.158;2023-03-03T20:30:22;28.63;;;6.60;;
5674;SDS011;2860;54.284;10.158;2023-03-03T20:33:04;27.90;;;6.82;;
5674;SDS011;2860;54.284;10.158;2023-03-03T20:35:46;35.13;;;7.68;;
5674;SDS011;2860;54.284;10.158;2023-03-03T20:41:26;32.78;;;5.57;;
5674;SDS011;2860;54.284;10.158;2023-03-03T20:44:17;36.83;;;6.38;;
5674;SDS011;2860;54.284;10.158;2023-03-03T20:49:39;30.55;;;5.63;;